CheckWX is a tool to help pilots better visualize weather data.  It is not intended as a substitute for an official pre-flight weather briefing.

12:26:01 UTC

LFTW TAF
Nîmes-Arles-Camargue Airport
Nîmes/Garons, France
TAF LFTW 220800Z 2209/2309 02005KT CAVOK TEMPO 2214/2217 27010KT BECMG 2307/2309 36015KT

Mar-22@
09:00 UTC

Mar-22 @ 09:00 UTC

Mar-23@
07:00 UTC

Mar-23 @ 07:00 UTC

TAF LFTW 220800Z 2209/2309 02005KT CAVOK
Wind
  • 020° at 5 KTS
Conditions
No significant weather
Cloud Levels
  • No significant clouds

Mar-22@
14:00 UTC

Mar-22 @ 14:00 UTC

Mar-22@
17:00 UTC

Mar-22 @ 17:00 UTC

TEMPO 2214/2217 27010KT

Temporary

Temporary Changes expected for less than half the time period

Wind
  • 270° at 10 KTS

Mar-23@
07:00 UTC

Mar-23 @ 07:00 UTC

Mar-23@
09:00 UTC

Mar-23 @ 09:00 UTC

BECMG 2307/2309 36015KT

Becoming

Becoming Conditions expected by Sat, Mar 23, 2019 @ 09:00 UTC

Wind
  • 360° at 15 KTS
Conditions
No significant weather
Cloud Levels
  • No significant clouds